Terminal Aerodrome Forecast
Issued by NWS

Home | Current Version | Previous Version | Text Only | Print | Product List | Glossary On
Versions: 1 2 3 4 5 6 7 8 9 10 11 12 13 14 15 16 17 18 19
000
FTUS43 KIWX 221730
TAFSBN
TAF
KSBN 221730Z 2218/2318 17014G23KT P6SM VCSH OVC015
     FM230000 17009KT P6SM VCSH SCT020 BKN035
     FM230900 22007KT 5SM -SHRA OVC025
     FM231200 23010KT 2SM -SHRASN OVC010=

USA.gov is the U.S. government's official web portal to all federal, state and local government web resources and services.